Mister T — WDC2491 — position and weather

sailwx.info

Track history (hours):
 
Tides and Currents Weather Stations Pressure Air Temp Water Temp Dewpoint Dewpoint Depression Visibility Wind Speed Wind Dir Waves Ship Positions

Mister T

Owner: Buchanan Marine LP, New Haven, CT. More information available from US FCC via Universal Licensing System and Coast Guard Vessel Documentation Center.

Last reported at 2017-Dec-25 17:22 UTC. Time now 2018-Feb-25 03:55 UTC.
Position N 40°51' W 073°57'.
Warning: this ship's position is months out of date.

Length 25 m; draft 3.6 m.

Type: Towing. MMSI: 366993880.

Date/timePositionNaut miles runAvg speedWind from/ knotsBaromVisibWave heightAir tempDewpointWater temp
2017-Dec-25 17:22N 40°51' W 073°57'1 3.8
2017-Dec-25 16:59N 40°50' W 073°58'2 3.8
2017-Dec-25 16:30N 40°48' W 073°59'2 3.7
2017-Dec-25 16:00N 40°46' W 074°00'2 3.4
2017-Dec-25 15:30N 40°45' W 074°01'1 3.0
2017-Dec-25 15:00N 40°43' W 074°02'2 3.1
2017-Dec-25 14:30N 40°42' W 074°02'2 3.5
2017-Dec-25 14:00N 40°40' W 074°03'0 0.6
2017-Dec-25 13:30N 40°40' W 074°03'2 3.4
2017-Dec-25 13:00N 40°39' W 074°05'1 2.4
2017-Dec-25 12:30N 40°39' W 074°07'0 0.0
2017-Dec-25 11:59N 40°39' W 074°07'1 1.3
2017-Dec-25 11:30N 40°39' W 074°06'4 7.8
2017-Dec-25 11:00N 40°40' W 074°01'0 0.1
2017-Dec-25 10:30N 40°40' W 074°01'2 3.7
2017-Dec-25 10:00N 40°40' W 074°03'1 3.0
2017-Dec-25 09:30N 40°41' W 074°02'4 7.5
2017-Dec-25 09:00N 40°43' W 073°58'4 7.8
2017-Dec-25 08:30N 40°47' W 073°56'3 6.5
2017-Dec-25 08:00N 40°48' W 073°52'2 3.5
2017-Dec-25 07:30N 40°48' W 073°49'2 2.6
2017-Dec-25 06:39N 40°49' W 073°52'1 6.7
2017-Dec-25 06:30N 40°48' W 073°52'1 1.7
2017-Dec-25 06:00N 40°48' W 073°51'0 0.0
2017-Dec-25 05:30N 40°48' W 073°51'0 0.0
2017-Dec-25 04:59N 40°48' W 073°51'0 0.0
2017-Dec-25 04:21N 40°48' W 073°51'0 0.0
2017-Dec-25 04:00N 40°48' W 073°51'0 0.0
2017-Dec-25 03:30N 40°48' W 073°51'0 0.0
2017-Dec-25 03:00N 40°48' W 073°51'0 0.0
2017-Dec-25 02:30N 40°48' W 073°51'0 0.0
2017-Dec-25 02:00N 40°48' W 073°51'0 0.1
2017-Dec-25 01:30N 40°48' W 073°51'0 0.0
2017-Dec-25 01:00N 40°48' W 073°51'2 4.0
2017-Dec-25 00:25N 40°46' W 073°50'2 4.1
2017-Dec-25 00:00N 40°47' W 073°52'2 4.6
2017-Dec-24 23:28N 40°49' W 073°49'0 1.1
2017-Dec-24 23:00N 40°48' W 073°50'1 2.9
2017-Dec-24 22:30N 40°48' W 073°51'2 3.8
2017-Dec-24 21:55N 40°46' W 073°50'1 1.2
2017-Dec-24 21:29N 40°46' W 073°51'2 4.7
2017-Dec-24 21:00N 40°48' W 073°50'1 1.5
2017-Dec-24 20:30N 40°48' W 073°49'2 3.3
2017-Dec-24 19:56N 40°49' W 073°47'3 5.7
2017-Dec-24 19:22N 40°52' W 073°45'1 0.0
2017-Dec-22 16:10N 40°52' W 073°44'2 8.3
2017-Dec-22 15:58N 40°51' W 073°46'3 7.3
2017-Dec-22 15:30N 40°48' W 073°48'2 4.0
2017-Dec-22 15:00N 40°48' W 073°51'2 3.9
2017-Dec-22 14:26N 40°46' W 073°50'1 1.3
2017-Dec-22 14:00N 40°46' W 073°51'2 3.9
2017-Dec-22 13:30N 40°48' W 073°51'2 3.9
2017-Dec-22 13:00N 40°48' W 073°49'1 1.1
2017-Dec-22 12:30N 40°48' W 073°49'3 5.6
2017-Dec-22 12:00N 40°46' W 073°51'0 0.4
2017-Dec-22 11:30N 40°46' W 073°51'2 3.8
2017-Dec-22 11:00N 40°48' W 073°52'2 4.4
2017-Dec-22 10:30N 40°49' W 073°49'2 4.7
2017-Dec-22 10:00N 40°48' W 073°52'2 3.6
2017-Dec-22 09:27N 40°46' W 073°50'2 5.1
2017-Dec-22 09:00N 40°48' W 073°51'2 3.4
2017-Dec-22 08:25N 40°48' W 073°48'2 5.3
2017-Dec-22 08:00N 40°50' W 073°46'3 0.1
2017-Dec-21 04:13N 40°52' W 073°44'1 4.4
2017-Dec-21 03:57N 40°51' W 073°45'2 4.5
2017-Dec-21 03:29N 40°50' W 073°47'2 3.8
2017-Dec-21 03:00N 40°48' W 073°48'2 3.8
2017-Dec-21 02:30N 40°48' W 073°50'2 4.3
2017-Dec-21 01:59N 40°46' W 073°50'2 3.8
2017-Dec-21 01:30N 40°47' W 073°52'2 3.8
2017-Dec-21 01:00N 40°48' W 073°49'0 0.9
2017-Dec-21 00:30N 40°49' W 073°49'1 2.0
2017-Dec-20 23:59N 40°48' W 073°48'3 5.4
2017-Dec-20 23:30N 40°50' W 073°46'0 0.1
2017-Dec-20 20:15N 40°50' W 073°46'1 5.7
2017-Dec-20 20:00N 40°49' W 073°47'2 3.9
2017-Dec-20 19:30N 40°48' W 073°49'1 1.9
2017-Dec-20 19:00N 40°48' W 073°50'2 4.4
2017-Dec-20 18:29N 40°46' W 073°51'0 0.7
2017-Dec-20 17:59N 40°46' W 073°50'2 3.4
2017-Dec-20 17:30N 40°47' W 073°52'1 1.9
2017-Dec-20 16:59N 40°48' W 073°52'1 1.2
2017-Dec-20 16:27N 40°49' W 073°52'1 2.8
2017-Dec-20 16:00N 40°48' W 073°51'1 1.9
2017-Dec-20 15:30N 40°48' W 073°49'3 5.2
2017-Dec-20 15:00N 40°46' W 073°51'1 1.3
2017-Dec-20 14:28N 40°46' W 073°50'0 0.3
2017-Dec-20 13:59N 40°46' W 073°50'2 4.4
2017-Dec-20 13:30N 40°48' W 073°50'1 1.5
2017-Dec-20 13:00N 40°48' W 073°51'2 4.1
2017-Dec-20 12:29N 40°46' W 073°50'0 0.0
2017-Dec-20 09:23N 40°46' W 073°50'0 0.0
2017-Dec-20 08:59N 40°46' W 073°50'0 0.0
2017-Dec-20 08:30N 40°46' W 073°50'0 0.0
2017-Dec-20 07:44N 40°46' W 073°50'0 0.0
2017-Dec-20 07:16N 40°46' W 073°50'0 0.0
2017-Dec-20 06:53N 40°46' W 073°50'1 3.2
2017-Dec-20 06:30N 40°47' W 073°51'2 4.5
2017-Dec-20 06:00N 40°48' W 073°49'2 3.4
2017-Dec-20 05:30N 40°48' W 073°47'1 0.6
2017-Dec-20 03:31N 40°49' W 073°47'0 8.4
2017-Dec-20 03:28N 40°49' W 073°47'3 7.3
2017-Dec-20 03:00N 40°48' W 073°51'2 3.6
2017-Dec-20 02:29N 40°46' W 073°50'2 4.1
2017-Dec-20 01:59N 40°48' W 073°51'2 3.3
2017-Dec-20 01:30N 40°49' W 073°49'3 5.1
2017-Dec-20 01:00N 40°48' W 073°52'3 6.4
2017-Dec-20 00:29N 40°47' W 073°56'4 7.3
2017-Dec-20 00:00N 40°43' W 073°58'3 6.5
2017-Dec-19 23:30N 40°41' W 074°01'2 4.3
2017-Dec-19 23:00N 40°40' W 074°03'0 0.0
2017-Dec-19 22:30N 40°40' W 074°03'0 0.7
2017-Dec-19 22:00N 40°40' W 074°03'3 5.9
2017-Dec-19 21:30N 40°42' W 074°00'3 5.9
2017-Dec-19 21:00N 40°45' W 073°58'4 7.8
2017-Dec-19 20:30N 40°47' W 073°55'3 6.2
2017-Dec-19 20:00N 40°48' W 073°51'1 1.7
2017-Dec-19 19:30N 40°48' W 073°50'2 4.6
2017-Dec-19 18:58N 40°46' W 073°51'0 0.3
2017-Dec-19 18:30N 40°46' W 073°51'2 4.3
2017-Dec-19 18:00N 40°48' W 073°51'1 2.3
2017-Dec-19 17:30N 40°48' W 073°50'3 1.5
2017-Dec-19 15:50N 40°46' W 073°51'1 3.1
2017-Dec-19 15:29N 40°47' W 073°52'2 3.4
2017-Dec-19 15:00N 40°48' W 073°50'1 1.7
2017-Dec-19 14:30N 40°48' W 073°49'2 4.6
2017-Dec-19 14:00N 40°48' W 073°52'2 4.8
2017-Dec-19 13:30N 40°47' W 073°55'3 6.0
2017-Dec-19 13:00N 40°45' W 073°58'3 5.7
2017-Dec-19 12:30N 40°42' W 073°59'3 5.6
2017-Dec-19 12:00N 40°41' W 074°02'1 2.9
2017-Dec-19 11:30N 40°40' W 074°03'0 0.2
2017-Dec-19 11:00N 40°40' W 074°03'0 0.0
2017-Dec-19 10:30N 40°40' W 074°03'0 0.1
2017-Dec-19 10:00N 40°40' W 074°03'0 0.0
2017-Dec-19 09:30N 40°40' W 074°03'0 0.0
2017-Dec-19 09:00N 40°40' W 074°03'0 0.0
2017-Dec-19 08:30N 40°40' W 074°03'3 5.6
2017-Dec-19 08:00N 40°41' W 074°00'1 2.2
2017-Dec-19 07:30N 40°41' W 074°01'1 2.8
2017-Dec-19 07:00N 40°40' W 074°03'1 2.8
2017-Dec-19 06:30N 40°41' W 074°01'0 0.2
2017-Dec-19 06:00N 40°41' W 074°01'2 3.2
2017-Dec-19 05:30N 40°40' W 074°03'2 3.5
2017-Dec-19 05:00N 40°41' W 074°01'4 7.1
2017-Dec-19 04:30N 40°44' W 073°58'4 7.4
2017-Dec-19 04:00N 40°47' W 073°56'3 5.9
2017-Dec-19 03:30N 40°48' W 073°52'2 4.5
2017-Dec-19 03:00N 40°48' W 073°49'0 0.1
2017-Dec-19 02:29N 40°48' W 073°49'0 0.0
2017-Dec-19 01:59N 40°48' W 073°49'0 0.0
2017-Dec-19 01:29N 40°48' W 073°49'0 0.0
2017-Dec-19 00:55N 40°48' W 073°49'0 0.0
2017-Dec-19 00:30N 40°48' W 073°49'0 0.0
2017-Dec-19 00:00N 40°48' W 073°49'0 0.0
2017-Dec-18 23:30N 40°48' W 073°49'0 0.0
2017-Dec-18 23:00N 40°48' W 073°49'0 0.0
2017-Dec-18 22:29N 40°48' W 073°49'0 0.0
2017-Dec-18 22:00N 40°48' W 073°49'1 1.2
2017-Dec-18 21:27N 40°48' W 073°50'2 4.4
2017-Dec-18 20:56N 40°46' W 073°50'1 1.3
2017-Dec-18 20:29N 40°46' W 073°51'1 2.6
2017-Dec-18 19:59N 40°47' W 073°52'3 5.1
2017-Dec-18 19:29N 40°49' W 073°49'1 2.8
2017-Dec-18 18:59N 40°48' W 073°51'2 4.4
2017-Dec-18 18:30N 40°46' W 073°51'0 0.7
2017-Dec-18 17:59N 40°46' W 073°50'2 4.6
2017-Dec-18 17:30N 40°48' W 073°51'3 5.8
2017-Dec-18 17:00N 40°48' W 073°47'4 0.1
2017-Dec-17 03:00N 40°52' W 073°45'3 5.2
2017-Dec-17 02:30N 40°50' W 073°46'2 4.2
2017-Dec-17 01:59N 40°48' W 073°48'0 1.0
2017-Dec-17 01:30N 40°48' W 073°49'0 0.0
2017-Dec-17 01:00N 40°48' W 073°49'0 0.0
2017-Dec-17 00:30N 40°48' W 073°49'0 0.0
2017-Dec-17 00:00N 40°48' W 073°49'0 0.0
2017-Dec-16 23:19N 40°48' W 073°49'0 0.0
2017-Dec-16 23:00N 40°48' W 073°49'0 0.0
2017-Dec-16 22:30N 40°48' W 073°49'0 0.0
2017-Dec-16 21:59N 40°48' W 073°49'0 0.0
2017-Dec-16 21:30N 40°48' W 073°49'0 0.0
2017-Dec-16 20:58N 40°48' W 073°49'0 0.0
2017-Dec-16 20:30N 40°48' W 073°49'0 0.0
2017-Dec-16 20:00N 40°48' W 073°49'0 0.0
2017-Dec-16 19:30N 40°48' W 073°49'0 0.0
2017-Dec-16 19:01N 40°48' W 073°49'0 0.0
2017-Dec-16 18:30N 40°48' W 073°49'0 0.0
2017-Dec-16 18:00N 40°48' W 073°49'0 0.0
2017-Dec-16 17:30N 40°48' W 073°49'0 0.0
2017-Dec-16 17:00N 40°48' W 073°49'0 0.1
2017-Dec-16 16:30N 40°49' W 073°49'0 0.0
2017-Dec-16 16:00N 40°49' W 073°49'0 0.0
2017-Dec-16 15:31N 40°49' W 073°49'2 3.6
2017-Dec-16 14:56N 40°50' W 073°47'3 6.7
2017-Dec-16 14:28N 40°52' W 073°44'4 8.4
2017-Dec-16 13:59N 40°49' W 073°47'2 4.5
2017-Dec-16 13:30N 40°48' W 073°50'2 5.0
2017-Dec-16 13:01N 40°46' W 073°51'0 0.5
2017-Dec-16 12:30N 40°46' W 073°50'2 4.2
2017-Dec-16 12:00N 40°48' W 073°51'2 4.2
2017-Dec-16 11:30N 40°48' W 073°49'1 1.8
2017-Dec-16 11:00N 40°48' W 073°50'3 6.6
2017-Dec-16 10:30N 40°48' W 073°54'4 7.4
2017-Dec-16 10:01N 40°45' W 073°57'3 6.7
2017-Dec-16 09:30N 40°42' W 073°59'3 5.8
2017-Dec-16 09:00N 40°40' W 074°02'1 2.3
2017-Dec-16 08:30N 40°40' W 074°03'0 0.0
2017-Dec-16 08:01N 40°40' W 074°03'0 0.1
2017-Dec-16 07:31N 40°40' W 074°03'1 1.5
2017-Dec-16 07:00N 40°39' W 074°03'1 1.2
2017-Dec-16 06:31N 40°39' W 074°04'3 5.0
2017-Dec-16 06:01N 40°39' W 074°07'3 5.6
2017-Dec-16 05:30N 40°39' W 074°11'2 4.8
2017-Dec-16 05:01N 40°37' W 074°12'1 1.0
2017-Dec-16 04:26N 40°36' W 074°12'3 7.3
2017-Dec-16 04:00N 40°39' W 074°10'3 0.5
2017-Dec-15 22:59N 40°39' W 074°07'4 7.5
2017-Dec-15 22:31N 40°41' W 074°03'2 3.8
2017-Dec-15 22:01N 40°41' W 074°00'2 3.2
2017-Dec-15 21:31N 40°41' W 074°02'1 2.3
2017-Dec-15 21:00N 40°40' W 074°03'2 3.3
2017-Dec-15 20:30N 40°41' W 074°02'0 0.2
2017-Dec-15 20:00N 40°41' W 074°01'2 3.6
2017-Dec-15 19:31N 40°40' W 074°03'0 0.0
2017-Dec-15 19:01N 40°40' W 074°03'0 0.0
2017-Dec-15 18:31N 40°40' W 074°03'0 0.0
2017-Dec-15 18:01N 40°40' W 074°03'0 0.0
2017-Dec-15 17:30N 40°40' W 074°03'  
Track history (hours):
 
Tides and Currents Weather Stations Pressure Air Temp Water Temp Dewpoint Dewpoint Depression Visibility Wind Speed Wind Dir Waves Ship Positions

Mister T

Owner: Buchanan Marine LP, New Haven, CT. More information available from US FCC via Universal Licensing System and Coast Guard Vessel Documentation Center.

Last reported at 2017-Dec-25 17:22 UTC. Time now 2018-Feb-25 03:55 UTC.
Position N 40°51' W 073°57'.
Warning: this ship's position is months out of date.

Length 25 m; draft 3.6 m.

Type: Towing. MMSI: 366993880.

Date/timePositionNaut miles runAvg speedWind from/ knotsBaromVisibWave heightAir tempDewpointWater temp
2017-Dec-25 17:22N 40°51' W 073°57'1 3.8
2017-Dec-25 16:59N 40°50' W 073°58'2 3.8
2017-Dec-25 16:30N 40°48' W 073°59'2 3.7
2017-Dec-25 16:00N 40°46' W 074°00'2 3.4
2017-Dec-25 15:30N 40°45' W 074°01'1 3.0
2017-Dec-25 15:00N 40°43' W 074°02'2 3.1
2017-Dec-25 14:30N 40°42' W 074°02'2 3.5
2017-Dec-25 14:00N 40°40' W 074°03'0 0.6
2017-Dec-25 13:30N 40°40' W 074°03'2 3.4
2017-Dec-25 13:00N 40°39' W 074°05'1 2.4
2017-Dec-25 12:30N 40°39' W 074°07'0 0.0
2017-Dec-25 11:59N 40°39' W 074°07'1 1.3
2017-Dec-25 11:30N 40°39' W 074°06'4 7.8
2017-Dec-25 11:00N 40°40' W 074°01'0 0.1
2017-Dec-25 10:30N 40°40' W 074°01'2 3.7
2017-Dec-25 10:00N 40°40' W 074°03'1 3.0
2017-Dec-25 09:30N 40°41' W 074°02'4 7.5
2017-Dec-25 09:00N 40°43' W 073°58'4 7.8
2017-Dec-25 08:30N 40°47' W 073°56'3 6.5
2017-Dec-25 08:00N 40°48' W 073°52'2 3.5
2017-Dec-25 07:30N 40°48' W 073°49'2 2.6
2017-Dec-25 06:39N 40°49' W 073°52'1 6.7
2017-Dec-25 06:30N 40°48' W 073°52'1 1.7
2017-Dec-25 06:00N 40°48' W 073°51'0 0.0
2017-Dec-25 05:30N 40°48' W 073°51'0 0.0
2017-Dec-25 04:59N 40°48' W 073°51'0 0.0
2017-Dec-25 04:21N 40°48' W 073°51'0 0.0
2017-Dec-25 04:00N 40°48' W 073°51'0 0.0
2017-Dec-25 03:30N 40°48' W 073°51'0 0.0
2017-Dec-25 03:00N 40°48' W 073°51'0 0.0
2017-Dec-25 02:30N 40°48' W 073°51'0 0.0
2017-Dec-25 02:00N 40°48' W 073°51'0 0.1
2017-Dec-25 01:30N 40°48' W 073°51'0 0.0
2017-Dec-25 01:00N 40°48' W 073°51'2 4.0
2017-Dec-25 00:25N 40°46' W 073°50'2 4.1
2017-Dec-25 00:00N 40°47' W 073°52'2 4.6
2017-Dec-24 23:28N 40°49' W 073°49'0 1.1
2017-Dec-24 23:00N 40°48' W 073°50'1 2.9
2017-Dec-24 22:30N 40°48' W 073°51'2 3.8
2017-Dec-24 21:55N 40°46' W 073°50'1 1.2
2017-Dec-24 21:29N 40°46' W 073°51'2 4.7
2017-Dec-24 21:00N 40°48' W 073°50'1 1.5
2017-Dec-24 20:30N 40°48' W 073°49'2 3.3
2017-Dec-24 19:56N 40°49' W 073°47'3 5.7
2017-Dec-24 19:22N 40°52' W 073°45'1 0.0
2017-Dec-22 16:10N 40°52' W 073°44'2 8.3
2017-Dec-22 15:58N 40°51' W 073°46'3 7.3
2017-Dec-22 15:30N 40°48' W 073°48'2 4.0
2017-Dec-22 15:00N 40°48' W 073°51'2 3.9
2017-Dec-22 14:26N 40°46' W 073°50'1 1.3
2017-Dec-22 14:00N 40°46' W 073°51'2 3.9
2017-Dec-22 13:30N 40°48' W 073°51'2 3.9
2017-Dec-22 13:00N 40°48' W 073°49'1 1.1
2017-Dec-22 12:30N 40°48' W 073°49'3 5.6
2017-Dec-22 12:00N 40°46' W 073°51'0 0.4
2017-Dec-22 11:30N 40°46' W 073°51'2 3.8
2017-Dec-22 11:00N 40°48' W 073°52'2 4.4
2017-Dec-22 10:30N 40°49' W 073°49'2 4.7
2017-Dec-22 10:00N 40°48' W 073°52'2 3.6
2017-Dec-22 09:27N 40°46' W 073°50'2 5.1
2017-Dec-22 09:00N 40°48' W 073°51'2 3.4
2017-Dec-22 08:25N 40°48' W 073°48'2 5.3
2017-Dec-22 08:00N 40°50' W 073°46'3 0.1
2017-Dec-21 04:13N 40°52' W 073°44'1 4.4
2017-Dec-21 03:57N 40°51' W 073°45'2 4.5
2017-Dec-21 03:29N 40°50' W 073°47'2 3.8
2017-Dec-21 03:00N 40°48' W 073°48'2 3.8
2017-Dec-21 02:30N 40°48' W 073°50'2 4.3
2017-Dec-21 01:59N 40°46' W 073°50'2 3.8
2017-Dec-21 01:30N 40°47' W 073°52'2 3.8
2017-Dec-21 01:00N 40°48' W 073°49'0 0.9
2017-Dec-21 00:30N 40°49' W 073°49'1 2.0
2017-Dec-20 23:59N 40°48' W 073°48'3 5.4
2017-Dec-20 23:30N 40°50' W 073°46'0 0.1
2017-Dec-20 20:15N 40°50' W 073°46'1 5.7
2017-Dec-20 20:00N 40°49' W 073°47'2 3.9
2017-Dec-20 19:30N 40°48' W 073°49'1 1.9
2017-Dec-20 19:00N 40°48' W 073°50'2 4.4
2017-Dec-20 18:29N 40°46' W 073°51'0 0.7
2017-Dec-20 17:59N 40°46' W 073°50'2 3.4
2017-Dec-20 17:30N 40°47' W 073°52'1 1.9
2017-Dec-20 16:59N 40°48' W 073°52'1 1.2
2017-Dec-20 16:27N 40°49' W 073°52'1 2.8
2017-Dec-20 16:00N 40°48' W 073°51'1 1.9
2017-Dec-20 15:30N 40°48' W 073°49'3 5.2
2017-Dec-20 15:00N 40°46' W 073°51'1 1.3
2017-Dec-20 14:28N 40°46' W 073°50'0 0.3
2017-Dec-20 13:59N 40°46' W 073°50'2 4.4
2017-Dec-20 13:30N 40°48' W 073°50'1 1.5
2017-Dec-20 13:00N 40°48' W 073°51'2 4.1
2017-Dec-20 12:29N 40°46' W 073°50'0 0.0
2017-Dec-20 09:23N 40°46' W 073°50'0 0.0
2017-Dec-20 08:59N 40°46' W 073°50'0 0.0
2017-Dec-20 08:30N 40°46' W 073°50'0 0.0
2017-Dec-20 07:44N 40°46' W 073°50'0 0.0
2017-Dec-20 07:16N 40°46' W 073°50'0 0.0
2017-Dec-20 06:53N 40°46' W 073°50'1 3.2
2017-Dec-20 06:30N 40°47' W 073°51'2 4.5
2017-Dec-20 06:00N 40°48' W 073°49'2 3.4
2017-Dec-20 05:30N 40°48' W 073°47'1 0.6
2017-Dec-20 03:31N 40°49' W 073°47'0 8.4
2017-Dec-20 03:28N 40°49' W 073°47'3 7.3
2017-Dec-20 03:00N 40°48' W 073°51'2 3.6
2017-Dec-20 02:29N 40°46' W 073°50'2 4.1
2017-Dec-20 01:59N 40°48' W 073°51'2 3.3
2017-Dec-20 01:30N 40°49' W 073°49'3 5.1
2017-Dec-20 01:00N 40°48' W 073°52'3 6.4
2017-Dec-20 00:29N 40°47' W 073°56'4 7.3
2017-Dec-20 00:00N 40°43' W 073°58'3 6.5
2017-Dec-19 23:30N 40°41' W 074°01'2 4.3
2017-Dec-19 23:00N 40°40' W 074°03'0 0.0
2017-Dec-19 22:30N 40°40' W 074°03'0 0.7
2017-Dec-19 22:00N 40°40' W 074°03'3 5.9
2017-Dec-19 21:30N 40°42' W 074°00'3 5.9
2017-Dec-19 21:00N 40°45' W 073°58'4 7.8
2017-Dec-19 20:30N 40°47' W 073°55'3 6.2
2017-Dec-19 20:00N 40°48' W 073°51'1 1.7
2017-Dec-19 19:30N 40°48' W 073°50'2 4.6
2017-Dec-19 18:58N 40°46' W 073°51'0 0.3
2017-Dec-19 18:30N 40°46' W 073°51'2 4.3
2017-Dec-19 18:00N 40°48' W 073°51'1 2.3
2017-Dec-19 17:30N 40°48' W 073°50'3 1.5
2017-Dec-19 15:50N 40°46' W 073°51'1 3.1
2017-Dec-19 15:29N 40°47' W 073°52'2 3.4
2017-Dec-19 15:00N 40°48' W 073°50'1 1.7
2017-Dec-19 14:30N 40°48' W 073°49'2 4.6
2017-Dec-19 14:00N 40°48' W 073°52'2 4.8
2017-Dec-19 13:30N 40°47' W 073°55'3 6.0
2017-Dec-19 13:00N 40°45' W 073°58'3 5.7
2017-Dec-19 12:30N 40°42' W 073°59'3 5.6
2017-Dec-19 12:00N 40°41' W 074°02'1 2.9
2017-Dec-19 11:30N 40°40' W 074°03'0 0.2
2017-Dec-19 11:00N 40°40' W 074°03'0 0.0
2017-Dec-19 10:30N 40°40' W 074°03'0 0.1
2017-Dec-19 10:00N 40°40' W 074°03'0 0.0
2017-Dec-19 09:30N 40°40' W 074°03'0 0.0
2017-Dec-19 09:00N 40°40' W 074°03'0 0.0
2017-Dec-19 08:30N 40°40' W 074°03'3 5.6
2017-Dec-19 08:00N 40°41' W 074°00'1 2.2
2017-Dec-19 07:30N 40°41' W 074°01'1 2.8
2017-Dec-19 07:00N 40°40' W 074°03'1 2.8
2017-Dec-19 06:30N 40°41' W 074°01'0 0.2
2017-Dec-19 06:00N 40°41' W 074°01'2 3.2
2017-Dec-19 05:30N 40°40' W 074°03'2 3.5
2017-Dec-19 05:00N 40°41' W 074°01'4 7.1
2017-Dec-19 04:30N 40°44' W 073°58'4 7.4
2017-Dec-19 04:00N 40°47' W 073°56'3 5.9
2017-Dec-19 03:30N 40°48' W 073°52'2 4.5
2017-Dec-19 03:00N 40°48' W 073°49'0 0.1
2017-Dec-19 02:29N 40°48' W 073°49'0 0.0
2017-Dec-19 01:59N 40°48' W 073°49'0 0.0
2017-Dec-19 01:29N 40°48' W 073°49'0 0.0
2017-Dec-19 00:55N 40°48' W 073°49'0 0.0
2017-Dec-19 00:30N 40°48' W 073°49'0 0.0
2017-Dec-19 00:00N 40°48' W 073°49'0 0.0
2017-Dec-18 23:30N 40°48' W 073°49'0 0.0
2017-Dec-18 23:00N 40°48' W 073°49'0 0.0
2017-Dec-18 22:29N 40°48' W 073°49'0 0.0
2017-Dec-18 22:00N 40°48' W 073°49'1 1.2
2017-Dec-18 21:27N 40°48' W 073°50'2 4.4
2017-Dec-18 20:56N 40°46' W 073°50'1 1.3
2017-Dec-18 20:29N 40°46' W 073°51'1 2.6
2017-Dec-18 19:59N 40°47' W 073°52'3 5.1
2017-Dec-18 19:29N 40°49' W 073°49'1 2.8
2017-Dec-18 18:59N 40°48' W 073°51'2 4.4
2017-Dec-18 18:30N 40°46' W 073°51'0 0.7
2017-Dec-18 17:59N 40°46' W 073°50'2 4.6
2017-Dec-18 17:30N 40°48' W 073°51'3 5.8
2017-Dec-18 17:00N 40°48' W 073°47'4 0.1
2017-Dec-17 03:00N 40°52' W 073°45'3 5.2
2017-Dec-17 02:30N 40°50' W 073°46'2 4.2
2017-Dec-17 01:59N 40°48' W 073°48'0 1.0
2017-Dec-17 01:30N 40°48' W 073°49'0 0.0
2017-Dec-17 01:00N 40°48' W 073°49'0 0.0
2017-Dec-17 00:30N 40°48' W 073°49'0 0.0
2017-Dec-17 00:00N 40°48' W 073°49'0 0.0
2017-Dec-16 23:19N 40°48' W 073°49'0 0.0
2017-Dec-16 23:00N 40°48' W 073°49'0 0.0
2017-Dec-16 22:30N 40°48' W 073°49'0 0.0
2017-Dec-16 21:59N 40°48' W 073°49'0 0.0
2017-Dec-16 21:30N 40°48' W 073°49'0 0.0
2017-Dec-16 20:58N 40°48' W 073°49'0 0.0
2017-Dec-16 20:30N 40°48' W 073°49'0 0.0
2017-Dec-16 20:00N 40°48' W 073°49'0 0.0
2017-Dec-16 19:30N 40°48' W 073°49'0 0.0
2017-Dec-16 19:01N 40°48' W 073°49'0 0.0
2017-Dec-16 18:30N 40°48' W 073°49'0 0.0
2017-Dec-16 18:00N 40°48' W 073°49'0 0.0
2017-Dec-16 17:30N 40°48' W 073°49'0 0.0
2017-Dec-16 17:00N 40°48' W 073°49'0 0.1
2017-Dec-16 16:30N 40°49' W 073°49'0 0.0
2017-Dec-16 16:00N 40°49' W 073°49'0 0.0
2017-Dec-16 15:31N 40°49' W 073°49'2 3.6
2017-Dec-16 14:56N 40°50' W 073°47'3 6.7
2017-Dec-16 14:28N 40°52' W 073°44'4 8.4
2017-Dec-16 13:59N 40°49' W 073°47'2 4.5
2017-Dec-16 13:30N 40°48' W 073°50'2 5.0
2017-Dec-16 13:01N 40°46' W 073°51'0 0.5
2017-Dec-16 12:30N 40°46' W 073°50'2 4.2
2017-Dec-16 12:00N 40°48' W 073°51'2 4.2
2017-Dec-16 11:30N 40°48' W 073°49'1 1.8
2017-Dec-16 11:00N 40°48' W 073°50'3 6.6
2017-Dec-16 10:30N 40°48' W 073°54'4 7.4
2017-Dec-16 10:01N 40°45' W 073°57'3 6.7
2017-Dec-16 09:30N 40°42' W 073°59'3 5.8
2017-Dec-16 09:00N 40°40' W 074°02'1 2.3
2017-Dec-16 08:30N 40°40' W 074°03'0 0.0
2017-Dec-16 08:01N 40°40' W 074°03'0 0.1
2017-Dec-16 07:31N 40°40' W 074°03'1 1.5
2017-Dec-16 07:00N 40°39' W 074°03'1 1.2
2017-Dec-16 06:31N 40°39' W 074°04'3 5.0
2017-Dec-16 06:01N 40°39' W 074°07'3 5.6
2017-Dec-16 05:30N 40°39' W 074°11'2 4.8
2017-Dec-16 05:01N 40°37' W 074°12'1 1.0
2017-Dec-16 04:26N 40°36' W 074°12'3 7.3
2017-Dec-16 04:00N 40°39' W 074°10'3 0.5
2017-Dec-15 22:59N 40°39' W 074°07'4 7.5
2017-Dec-15 22:31N 40°41' W 074°03'2 3.8
2017-Dec-15 22:01N 40°41' W 074°00'2 3.2
2017-Dec-15 21:31N 40°41' W 074°02'1 2.3
2017-Dec-15 21:00N 40°40' W 074°03'2 3.3
2017-Dec-15 20:30N 40°41' W 074°02'0 0.2
2017-Dec-15 20:00N 40°41' W 074°01'2 3.6
2017-Dec-15 19:31N 40°40' W 074°03'0 0.0
2017-Dec-15 19:01N 40°40' W 074°03'0 0.0
2017-Dec-15 18:31N 40°40' W 074°03'0 0.0
2017-Dec-15 18:01N 40°40' W 074°03'0 0.0
2017-Dec-15 17:30N 40°40' W 074°03'  

Dump ship's entire track history